Time;durP1;ratioP1;P1;durP2;ratioP2;P2;SDS_P1;SDS_P2;PMS_P1;PMS_P2;Temp;Humidity;BMP_temperature;BMP_pressure;BME280_temperature;BME280_humidity;BME280_pressure;Samples;Min_cycle;Max_cycle;Signal;HPM_P1;HPM_P2
2021/05/11 00:02:21;;;;;;;6.82;3.90;;;;;;;14.29;63.63;99561.09;4455966;32;37661;-93
2021/05/11 00:04:57;;;;;;;7.10;4.45;;;;;;;14.17;63.89;99557.41;4468390;32;33689;-95
2021/05/11 00:07:33;;;;;;;5.80;4.00;;;;;;;13.95;64.61;99552.25;4452314;32;33817;-93
2021/05/11 00:10:06;;;;;;;10.45;4.75;;;;;;;13.80;64.84;99559.00;4440688;32;33000;-91
2021/05/11 00:12:40;;;;;;;9.88;5.03;;;;;;;13.88;64.56;99551.44;4440451;32;35017;-90
2021/05/11 00:15:13;;;;;;;7.30;4.43;;;;;;;14.02;64.02;99554.94;4468421;32;33670;-91
2021/05/11 00:17:45;;;;;;;8.70;4.40;;;;;;;13.84;64.68;99550.19;4426265;32;33918;-91
2021/05/11 00:20:19;;;;;;;5.43;4.30;;;;;;;13.66;65.27;99556.31;4454446;32;33117;-88
2021/05/11 00:22:51;;;;;;;7.55;4.47;;;;;;;13.71;64.99;99551.09;4467416;32;34408;-91
2021/05/11 00:25:23;;;;;;;8.93;5.12;;;;;;;13.87;64.48;99549.75;4441405;32;34490;-89
2021/05/11 00:28:03;;;;;;;6.95;4.43;;;;;;;13.88;64.28;99546.00;4456067;32;35350;-88
2021/05/11 00:30:38;;;;;;;9.55;4.80;;;;;;;13.74;64.40;99560.66;4456060;32;33139;-91
2021/05/11 00:33:10;;;;;;;15.52;4.90;;;;;;;13.77;64.24;99555.66;4453006;32;33642;-88
2021/05/11 00:35:43;;;;;;;10.70;4.32;;;;;;;13.51;65.27;99553.00;4469316;32;33792;-88
2021/05/11 00:38:15;;;;;;;10.35;4.62;;;;;;;13.34;65.78;99549.91;4443524;32;34378;-88
2021/05/11 00:40:48;;;;;;;7.15;4.30;;;;;;;13.63;64.83;99548.59;4468835;32;33949;-88
2021/05/11 00:43:20;;;;;;;7.53;4.25;;;;;;;13.82;64.15;99551.44;4454520;32;34470;-91
2021/05/11 00:45:53;;;;;;;7.57;4.18;;;;;;;13.88;63.74;99551.44;4456609;32;33752;-90
2021/05/11 00:48:25;;;;;;;8.57;4.57;;;;;;;13.56;64.55;99550.47;4439376;32;33588;-90
2021/05/11 00:50:58;;;;;;;8.57;4.90;;;;;;;13.65;64.12;99551.09;4443283;32;33815;-88
2021/05/11 00:53:30;;;;;;;9.15;4.30;;;;;;;13.55;64.54;99552.34;4455732;32;33885;-89
2021/05/11 00:56:03;;;;;;;6.05;4.57;;;;;;;13.53;64.53;99548.19;4467896;32;33791;-89
2021/05/11 00:58:35;;;;;;;9.05;4.72;;;;;;;13.66;64.07;99547.34;4455522;32;34272;-91
2021/05/11 01:01:08;;;;;;;6.18;3.70;;;;;;;13.45;65.19;99551.94;4455276;32;32907;-89
2021/05/11 01:03:40;;;;;;;7.62;4.07;;;;;;;13.57;64.78;99546.72;4452676;32;33594;-89
2021/05/11 01:06:14;;;;;;;9.07;5.78;;;;;;;13.65;64.51;99554.62;4460103;32;34891;-88
2021/05/11 01:08:46;;;;;;;7.28;4.53;;;;;;;13.82;63.65;99549.59;4455360;32;33936;-88
2021/05/11 01:11:18;;;;;;;9.48;5.32;;;;;;;13.67;64.07;99549.84;4463969;32;34137;-91
2021/05/11 01:13:52;;;;;;;8.23;4.30;;;;;;;13.52;64.80;99552.78;4445110;32;34206;-88
2021/05/11 01:16:27;;;;;;;8.95;4.37;;;;;;;13.56;64.45;99551.31;4468861;32;33801;-88
2021/05/11 01:19:14;;;;;;;8.95;4.50;;;;;;;13.27;65.58;99551.75;4466046;32;33657;-91
2021/05/11 01:24:32;;;;;;;9.73;4.82;;;;;;;13.15;66.44;99557.78;4455217;32;34438;-93
2021/05/11 01:27:26;;;;;;;7.03;5.28;;;;;;;13.16;66.50;99548.59;4451662;32;34460;-89
2021/05/11 02:23:38;;;;;;;8.57;4.93;;;;;;;12.67;66.21;99533.56;4461711;32;33239;-93
2021/05/11 02:26:11;;;;;;;9.32;5.25;;;;;;;12.86;65.95;99532.75;4433340;32;34428;-89
2021/05/11 02:28:45;;;;;;;12.60;5.00;;;;;;;12.89;65.34;99536.91;4467722;32;33101;-90
2021/05/11 02:31:16;;;;;;;10.18;5.22;;;;;;;12.53;67.02;99530.81;4467072;32;33519;-89
2021/05/11 02:33:49;;;;;;;10.77;5.25;;;;;;;12.62;66.92;99530.59;4453637;32;35819;-89
2021/05/11 02:36:21;;;;;;;8.45;5.65;;;;;;;12.50;67.49;99528.50;4466299;32;33742;-90
2021/05/11 02:38:54;;;;;;;13.45;5.82;;;;;;;12.48;67.69;99524.34;4440635;32;33424;-89
2021/05/11 02:41:27;;;;;;;7.05;5.25;;;;;;;12.60;67.16;99519.97;4459700;32;34513;-89
2021/05/11 02:44:00;;;;;;;10.48;4.55;;;;;;;12.52;67.44;99518.28;4450817;32;33395;-90
2021/05/11 02:46:33;;;;;;;8.23;5.10;;;;;;;12.85;65.87;99519.38;4426730;32;34840;-94
2021/05/11 02:49:12;;;;;;;11.38;5.12;;;;;;;12.43;66.37;99508.69;4427579;32;37847;-89
2021/05/11 02:51:44;;;;;;;7.75;5.20;;;;;;;12.85;65.54;99508.53;4463395;32;33226;-90
2021/05/11 02:54:17;;;;;;;8.85;5.43;;;;;;;12.85;66.18;99509.38;4451262;32;34930;-90
2021/05/11 02:56:49;;;;;;;9.75;4.97;;;;;;;12.53;67.26;99517.25;4449038;32;34934;-89
2021/05/11 02:59:22;;;;;;;14.38;5.03;;;;;;;12.45;67.23;99509.31;4467158;32;34101;-90
2021/05/11 03:01:54;;;;;;;7.87;4.72;;;;;;;12.62;66.64;99519.75;4450485;32;34594;-91
2021/05/11 03:04:27;;;;;;;8.32;5.53;;;;;;;12.46;66.91;99516.41;4450060;32;34452;-92
2021/05/11 03:06:59;;;;;;;9.05;4.85;;;;;;;12.71;65.92;99519.38;4468750;32;33601;-93
2021/05/11 03:09:32;;;;;;;11.23;5.53;;;;;;;12.41;67.00;99518.06;4455646;32;32920;-90
2021/05/11 03:12:05;;;;;;;6.68;4.93;;;;;;;12.46;66.77;99524.53;4464428;32;34406;-90
2021/05/11 03:14:38;;;;;;;7.50;5.12;;;;;;;12.29;67.33;99526.81;4453051;32;34453;-92
2021/05/11 03:17:10;;;;;;;12.23;5.70;;;;;;;12.26;67.55;99529.06;4464617;32;33490;-90
2021/05/11 03:19:43;;;;;;;6.60;4.85;;;;;;;12.52;66.94;99529.13;4439032;32;34861;-89
2021/05/11 03:22:15;;;;;;;10.48;5.22;;;;;;;12.52;67.35;99523.72;4440969;32;33384;-90
2021/05/11 03:24:47;;;;;;;8.25;5.18;;;;;;;12.36;67.79;99524.09;4453329;32;34449;-90
2021/05/11 03:27:20;;;;;;;6.97;4.87;;;;;;;12.52;67.39;99531.03;4440060;32;34388;-91
2021/05/11 03:29:53;;;;;;;8.32;5.20;;;;;;;12.27;68.33;99528.03;4431450;32;33856;-91
2021/05/11 03:32:25;;;;;;;6.47;4.82;;;;;;;12.61;67.12;99526.25;4461986;32;33390;-91
2021/05/11 03:34:58;;;;;;;6.75;5.25;;;;;;;12.53;67.18;99528.09;4440966;32;34641;-89
2021/05/11 03:37:30;;;;;;;7.35;5.20;;;;;;;12.66;66.92;99527.28;4453075;32;34416;-93
2021/05/11 03:40:03;;;;;;;8.27;4.97;;;;;;;12.72;66.72;99528.34;4454604;32;32987;-92
2021/05/11 03:42:40;;;;;;;7.57;4.95;;;;;;;12.68;67.17;99529.81;4432885;32;34703;-89
2021/05/11 03:45:13;;;;;;;7.43;5.15;;;;;;;12.63;67.77;99535.00;4469962;32;33781;-92
2021/05/11 03:47:53;;;;;;;6.25;4.78;;;;;;;12.78;67.70;99532.94;4468509;32;33434;-92
2021/05/11 03:50:27;;;;;;;7.15;5.20;;;;;;;12.84;67.35;99534.84;4432101;32;35153;-89
2021/05/11 03:53:01;;;;;;;8.40;5.45;;;;;;;12.97;67.29;99538.59;4439420;32;34937;-91
2021/05/11 03:55:35;;;;;;;6.30;4.75;;;;;;;13.09;66.92;99522.53;4453125;32;34715;-93
2021/05/11 03:58:07;;;;;;;8.25;5.45;;;;;;;12.93;67.73;99531.91;4447734;32;33682;-92
2021/05/11 04:00:41;;;;;;;6.15;4.87;;;;;;;13.13;67.58;99529.19;4463788;32;33758;-91
2021/05/11 04:03:15;;;;;;;5.72;4.60;;;;;;;13.16;67.72;99529.63;4440536;32;34182;-92
2021/05/11 04:05:51;;;;;;;6.25;4.87;;;;;;;13.50;66.52;99532.31;4428176;32;35195;-90
2021/05/11 04:11:19;;;;;;;6.68;4.78;;;;;;;13.46;67.29;99531.91;4468370;32;33095;-92
2021/05/11 04:16:46;;;;;;;9.40;5.68;;;;;;;13.53;68.66;99526.47;4452508;32;33476;-94
2021/05/11 04:19:35;;;;;;;12.05;5.97;;;;;;;13.86;67.69;99528.25;4380405;32;33395;-92
2021/05/11 04:22:08;;;;;;;11.35;5.70;;;;;;;14.01;67.59;99528.84;4402253;32;34063;-91
2021/05/11 04:24:41;;;;;;;10.27;5.97;;;;;;;14.21;67.12;99526.03;4400849;32;34479;-90
2021/05/11 04:27:13;;;;;;;12.32;5.78;;;;;;;14.27;67.15;99517.00;4388962;32;34524;-90
2021/05/11 04:29:49;;;;;;;7.95;5.35;;;;;;;14.42;67.24;99522.16;4374309;32;33651;-90
2021/05/11 04:32:22;;;;;;;11.95;6.62;;;;;;;14.70;65.81;99520.97;4384624;32;33360;-90
2021/05/11 04:34:56;;;;;;;10.82;5.50;;;;;;;14.96;65.33;99519.09;4374949;32;33605;-92
2021/05/11 04:37:32;;;;;;;6.80;5.18;;;;;;;15.30;64.20;99519.63;4377693;32;33701;-96
2021/05/11 04:40:07;;;;;;;9.02;4.90;;;;;;;15.35;63.59;99511.63;4374411;32;34382;-96
2021/05/11 04:42:43;;;;;;;8.95;5.12;;;;;;;15.46;62.54;99518.22;4377426;32;33407;-92
2021/05/11 04:45:20;;;;;;;11.02;5.45;;;;;;;15.72;62.15;99514.41;4402286;32;33471;-94
2021/05/11 04:47:53;;;;;;;6.87;4.78;;;;;;;16.22;60.89;99508.78;4397732;32;33647;-92
2021/05/11 04:50:28;;;;;;;12.88;4.80;;;;;;;16.27;60.92;99515.44;4374865;32;36496;-92
2021/05/11 04:53:03;;;;;;;9.80;4.45;;;;;;;16.62;59.46;99518.31;4372643;32;33930;-96
2021/05/11 04:55:57;;;;;;;11.50;4.35;;;;;;;16.62;58.84;99526.50;4367109;32;33514;-96
2021/05/11 04:58:31;;;;;;;8.40;4.25;;;;;;;16.35;58.66;99524.12;4376632;32;34057;-93
2021/05/11 05:01:07;;;;;;;7.47;4.40;;;;;;;16.80;57.24;99514.69;4378572;32;32992;-92
2021/05/11 05:03:50;;;;;;;7.87;4.00;;;;;;;16.69;57.96;99521.78;4395521;32;32566;-96
2021/05/11 05:06:52;;;;;;;7.85;4.62;;;;;;;16.92;56.42;99514.72;4364390;32;34208;-94
2021/05/11 05:09:48;;;;;;;10.98;3.92;;;;;;;17.24;56.70;99517.12;4403097;26;34755;-95
2021/05/11 05:12:25;;;;;;;8.02;3.50;;;;;;;17.07;55.77;99517.84;4399571;32;34356;-96
2021/05/11 05:15:16;;;;;;;7.90;3.70;;;;;;;17.19;55.50;99508.84;4460055;27;34243;-93
2021/05/11 05:18:03;;;;;;;6.90;3.15;;;;;;;17.40;54.35;99508.22;4408843;32;35199;-96
2021/05/11 05:20:40;;;;;;;8.77;3.45;;;;;;;17.79;53.57;99515.91;4366805;32;34573;-94
2021/05/11 05:23:15;;;;;;;10.10;3.95;;;;;;;17.23;54.83;99518.19;4344839;32;32839;-95
2021/05/11 05:26:09;;;;;;;8.23;3.25;;;;;;;17.80;53.42;99521.16;4386524;32;32177;-95
2021/05/11 05:28:43;;;;;;;6.35;3.25;;;;;;;17.86;52.98;99524.81;4398114;32;33644;-96
2021/05/11 05:31:59;;;;;;;8.73;3.58;;;;;;;18.05;52.38;99516.47;4406425;32;35194;-93
2021/05/11 05:34:35;;;;;;;7.18;3.17;;;;;;;17.79;51.86;99514.00;4398248;32;34538;-95
2021/05/11 05:37:31;;;;;;;7.18;3.17;;;;;;;18.16;51.46;99519.19;4363365;32;33504;-91
2021/05/11 05:40:18;;;;;;;9.07;3.40;;;;;;;18.42;51.18;99521.59;4358210;32;34698;-95
2021/05/11 05:42:56;;;;;;;9.70;2.67;;;;;;;18.52;51.25;99517.12;4351521;32;33664;-94
2021/05/11 05:45:51;;;;;;;9.60;3.53;;;;;;;18.64;49.57;99519.00;4407975;32;34108;-93
2021/05/11 05:48:29;;;;;;;6.47;2.75;;;;;;;18.86;48.63;99509.03;4358497;32;33818;-95
2021/05/11 05:51:31;;;;;;;5.70;2.62;;;;;;;18.57;48.62;99504.63;4394890;32;33290;-96
2021/05/11 05:54:33;;;;;;;9.52;2.87;;;;;;;18.68;47.60;99510.03;4357018;32;32798;-93
2021/05/11 05:57:09;;;;;;;5.60;2.45;;;;;;;19.07;46.90;99505.78;4383875;32;32661;-94
2021/05/11 05:59:50;;;;;;;;;;;;;;;19.48;46.87;99512.72;4382061;32;34400;-94
2021/05/11 06:02:27;;;;;;;4.95;2.55;;;;;;;19.35;47.35;99502.09;4406233;27;34583;-94
2021/05/11 06:05:27;;;;;;;14.43;3.45;;;;;;;19.69;46.34;99510.28;4385969;32;34427;-91
2021/05/11 06:08:22;;;;;;;7.78;2.67;;;;;;;19.71;45.56;99508.91;4371861;32;33478;-96
2021/05/11 06:17:41;;;;;;;6.57;2.90;;;;;;;19.32;46.87;99513.56;4313230;33;33636;-94
2021/05/11 06:20:19;;;;;;;8.23;2.80;;;;;;;19.43;46.42;99515.41;4308289;33;32540;-95
2021/05/11 06:22:56;;;;;;;7.60;2.78;;;;;;;19.87;45.67;99504.50;4306910;33;34966;-95
2021/05/11 06:25:42;;;;;;;11.02;2.95;;;;;;;19.86;46.09;99502.84;4321937;33;34720;-96
2021/05/11 06:28:36;;;;;;;8.13;3.03;;;;;;;19.84;44.71;99509.69;4297199;33;34109;-96
2021/05/11 06:31:25;;;;;;;9.73;2.50;;;;;;;19.93;45.31;99503.47;4304864;33;33492;-96
2021/05/11 06:34:55;;;;;;;4.10;3.08;;;;;;;20.23;45.89;99507.69;4291023;33;31969;-93
2021/05/11 06:37:31;;;;;;;10.68;3.35;;;;;;;20.48;45.00;99500.84;4323157;33;34218;-93
2021/05/11 06:40:22;;;;;;;3.72;2.60;;;;;;;20.36;45.35;99500.13;4637003;27;33720;-89
2021/05/11 06:43:07;;;;;;;4.70;2.50;;;;;;;20.54;44.87;99497.03;4364646;32;34953;-95
2021/05/11 06:53:53;;;;;;;13.38;3.08;;;;;;;21.02;43.43;99485.41;4264123;33;34295;-96
2021/05/11 06:56:39;;;;;;;7.55;2.08;;;;;;;21.04;43.97;99494.22;4308771;33;32739;-95
2021/05/11 06:59:22;;;;;;;10.05;2.37;;;;;;;20.96;43.72;99503.78;4289203;33;34111;-96
2021/05/11 07:02:10;;;;;;;6.30;2.45;;;;;;;20.97;42.25;99488.94;4321932;33;33539;-89
2021/05/11 07:04:44;;;;;;;5.80;2.47;;;;;;;21.78;42.19;99487.00;4350705;27;35216;-95
2021/05/11 07:10:51;;;;;;;7.25;2.67;;;;;;;21.84;41.47;99481.28;4362360;32;33767;-95
2021/05/11 07:13:55;;;;;;;10.38;2.62;;;;;;;21.94;41.10;99476.91;4371052;32;33562;-94
2021/05/11 07:17:03;;;;;;;8.77;2.10;;;;;;;21.90;41.16;99473.03;4373612;27;33355;-94
2021/05/11 07:19:52;;;;;;;7.93;2.03;;;;;;;22.39;40.34;99475.41;4313127;33;34622;-96
2021/05/11 07:22:43;;;;;;;7.53;2.05;;;;;;;22.19;40.19;99470.66;4327689;33;36159;-96
2021/05/11 07:26:08;;;;;;;10.50;2.55;;;;;;;22.43;40.32;99470.22;4320413;33;32778;-94
2021/05/11 07:31:33;;;;;;;6.68;2.28;;;;;;;22.53;40.78;99473.81;4351454;32;36409;-94
2021/05/11 07:34:17;;;;;;;9.50;1.70;;;;;;;22.96;38.84;99478.22;4352717;32;34427;-93
2021/05/11 07:36:59;;;;;;;3.85;1.73;;;;;;;23.18;37.79;99486.25;4377785;32;33593;-93
2021/05/11 07:40:09;;;;;;;5.43;2.20;;;;;;;23.18;37.56;99486.25;4363258;32;33643;-96
2021/05/11 07:42:59;;;;;;;6.95;1.90;;;;;;;23.48;38.19;99492.81;4413165;27;35393;-95
2021/05/11 07:45:48;;;;;;;8.38;2.30;;;;;;;23.67;37.28;99488.34;4368833;32;34498;-94
2021/05/11 08:04:17;;;;;;;11.80;2.45;;;;;;;24.67;36.45;99483.75;4377010;32;32621;-93
2021/05/11 08:16:13;;;;;;;13.98;2.95;;;;;;;24.83;34.54;99498.28;4369805;32;32924;-92
2021/05/11 08:23:01;;;;;;;8.38;1.98;;;;;;;25.26;35.88;99492.13;4378531;32;32952;-96
2021/05/11 08:37:36;;;;;;;9.50;2.25;;;;;;;26.15;33.18;99482.56;4387794;28;20017;-88
2021/05/11 08:44:40;;;;;;;6.90;1.77;;;;;;;26.34;32.90;99482.59;4223778;33;34571;-89
2021/05/11 08:47:51;;;;;;;3.35;2.15;;;;;;;26.68;31.98;99487.12;4455769;28;33502;-96
2021/05/11 08:50:58;;;;;;;4.07;2.45;;;;;;;26.54;32.06;99483.41;4285944;33;32966;-96
2021/05/11 09:25:59;;;;;;;6.87;2.40;;;;;;;27.81;29.33;99457.34;4396409;28;31971;-96
2021/05/11 09:29:20;;;;;;;4.40;1.80;;;;;;;28.09;29.08;99454.59;4260618;33;34696;-96
2021/05/11 09:45:49;;;;;;;5.30;1.90;;;;;;;29.18;29.20;99450.88;4263750;28;33562;-96
2021/05/11 09:58:46;;;;;;;5.50;1.98;;;;;;;30.37;25.66;99453.91;4257926;33;32883;-93
2021/05/11 10:49:46;;;;;;;7.40;2.10;;;;;;;30.09;23.80;99392.09;4282178;33;20180;-93
2021/05/11 10:52:43;;;;;;;4.85;1.77;;;;;;;31.57;24.34;99388.22;4332613;28;32709;-89
2021/05/11 10:55:52;;;;;;;4.95;2.17;;;;;;;31.77;22.68;99389.44;4249407;33;32426;-96
2021/05/11 11:02:26;;;;;;;5.15;2.03;;;;;;;31.36;22.59;99374.19;4233267;33;32746;-96
2021/05/11 11:05:02;;;;;;;3.78;1.60;;;;;;;31.43;23.12;99380.06;4418190;28;34850;-91
2021/05/11 11:08:42;;;;;;;;;;;;;;;;;;;;;
2021/05/11 11:11:47;;;;;;;2.72;1.75;;;;;;;31.51;21.90;99358.84;4368643;27;33814;-96
2021/05/11 11:15:26;;;;;;;3.67;1.50;;;;;;;32.10;21.25;99357.97;1417226;28;20251;-93
2021/05/11 11:18:03;;;;;;;3.97;1.58;;;;;;;32.07;21.76;99352.22;4233234;33;32770;-96
2021/05/11 11:24:05;;;;;;;4.53;1.98;;;;;;;32.56;20.05;99344.91;4243629;33;34571;-96
2021/05/11 11:26:58;;;;;;;3.15;1.80;;;;;;;31.99;20.62;99354.78;4230718;33;31945;-94
2021/05/11 11:29:43;;;;;;;6.47;1.73;;;;;;;32.70;20.03;99338.22;4248560;33;34294;-94
2021/05/11 11:32:21;;;;;;;2.10;1.65;;;;;;;32.82;20.21;99340.25;4236533;33;33728;-94
2021/05/11 11:34:59;;;;;;;7.53;1.75;;;;;;;32.60;20.33;99331.06;4236660;33;32825;-96
2021/05/11 11:37:50;;;;;;;6.95;1.92;;;;;;;33.13;19.97;99324.88;4265417;33;33106;-93
2021/05/11 11:40:29;;;;;;;6.65;1.67;;;;;;;33.05;20.43;99319.03;4247528;33;32704;-95
2021/05/11 11:43:05;;;;;;;4.37;1.85;;;;;;;32.40;20.93;99313.19;4268187;33;33864;-92
2021/05/11 11:45:46;;;;;;;4.70;1.98;;;;;;;33.02;20.64;99302.94;4270710;33;34509;-93
2021/05/11 11:48:26;;;;;;;2.28;1.52;;;;;;;33.73;20.64;99306.44;4264194;33;34968;-96
2021/05/11 11:51:09;;;;;;;2.72;1.90;;;;;;;33.59;20.19;99301.22;4277645;33;32905;-92
2021/05/11 11:54:07;;;;;;;2.72;1.55;;;;;;;33.33;19.90;99297.97;4299398;28;34568;-96
2021/05/11 12:00:32;;;;;;;5.23;1.60;;;;;;;33.36;19.67;99284.06;4468213;27;34134;31
2021/05/11 12:03:32;;;;;;;4.60;1.65;;;;;;;33.68;20.71;99281.44;4402063;27;34187;31
2021/05/11 12:06:28;;;;;;;2.20;1.73;;;;;;;33.36;18.93;99261.69;4334872;28;34285;-96
2021/05/11 12:09:28;;;;;;;4.45;1.83;;;;;;;33.35;18.95;99264.84;4300627;33;36840;-96
2021/05/11 12:12:30;;;;;;;3.92;1.85;;;;;;;34.09;19.40;99250.66;4037745;27;33154;-96
2021/05/11 12:15:43;;;;;;;8.80;2.20;;;;;;;34.16;18.77;99248.00;4593065;27;32815;31
2021/05/11 12:22:43;;;;;;;4.20;1.65;;;;;;;33.90;19.51;99240.91;4327221;27;20088;-96
2021/05/11 12:37:36;;;;;;;6.60;1.73;;;;;;;33.49;19.79;99225.25;4527526;28;20085;-96
2021/05/11 12:45:22;;;;;;;4.63;1.90;;;;;;;33.85;18.28;99207.53;4755447;28;20810;31
2021/05/11 12:49:21;;;;;;;5.45;1.80;;;;;;;33.97;19.05;99206.66;3690489;28;20099;31
2021/05/11 12:52:52;;;;;;;5.25;2.17;;;;;;;33.73;18.27;99197.19;4146000;28;20131;31
2021/05/11 13:17:39;;;;;;;4.50;1.52;;;;;;;34.32;17.94;99172.38;4214787;28;33911;-96
2021/05/11 13:26:51;;;;;;;3.95;1.65;;;;;;;34.54;17.79;99173.75;4157155;34;35182;-95
2021/05/11 13:33:46;;;;;;;4.05;1.48;;;;;;;34.55;16.67;99152.91;4238237;33;32965;-94
2021/05/11 13:36:51;;;;;;;3.95;1.83;;;;;;;34.57;17.47;99150.56;4221877;33;32055;-95
2021/05/11 13:40:00;;;;;;;5.12;1.52;;;;;;;34.60;18.02;99144.25;4240557;33;33913;-96
2021/05/11 13:47:56;;;;;;;;;;;;;;;34.38;17.99;99130.88;4228042;28;33766;-96
2021/05/11 13:51:30;;;;;;;6.10;1.85;;;;;;;34.35;17.72;99121.19;4277526;27;32992;-93
2021/05/11 13:55:38;;;;;;;6.25;1.70;;;;;;;34.17;17.68;99120.72;4190659;34;34169;-96
2021/05/11 14:03:09;;;;;;;2.87;1.33;;;;;;;33.52;18.52;99109.72;4224390;33;20165;-96
2021/05/11 14:06:45;;;;;;;9.18;1.92;;;;;;;33.99;18.61;99109.03;4202619;33;32203;-95
2021/05/11 14:09:38;;;;;;;6.62;1.90;;;;;;;33.92;18.34;99114.44;4219194;33;32895;-96
2021/05/11 14:12:57;;;;;;;3.57;1.73;;;;;;;34.08;18.50;99094.84;713369;28;20367;-95
2021/05/11 14:15:41;;;;;;;4.40;1.65;;;;;;;34.16;18.18;99101.44;4173393;34;32746;-96
2021/05/11 14:22:05;;;;;;;2.78;1.58;;;;;;;33.37;18.82;99089.72;1048432;29;20370;-96
2021/05/11 14:26:02;;;;;;;;;;;;;;;;;;;;;
2021/05/11 14:29:16;;;;;;;4.85;1.70;;;;;;;33.30;18.33;99088.72;4086908;29;34165;-96
2021/05/11 14:32:32;;;;;;;6.07;2.08;;;;;;;32.80;19.00;99082.41;4032841;35;31747;-95
2021/05/11 14:44:37;;;;;;;6.25;1.62;;;;;;;32.71;19.61;99065.75;4417433;28;34628;-96
2021/05/11 14:48:37;;;;;;;;;;;;;;;;;;;;;
2021/05/11 14:55:52;;;;;;;7.50;1.62;;;;;;;32.14;20.23;99079.50;1147373;28;20378;-93
2021/05/11 15:04:02;;;;;;;3.50;1.40;;;;;;;33.05;19.25;99071.97;1895955;29;33918;-92
2021/05/11 15:07:53;;;;;;;;;;;;;;;;;;;;;
2021/05/11 15:11:48;;;;;;;2.70;1.30;;;;;;;32.88;19.71;99059.09;4432399;29;35332;31
2021/05/11 15:26:17;;;;;;;4.72;1.52;;;;;;;33.08;19.24;99034.88;4281046;28;20081;-95
2021/05/11 15:33:29;;;;;;;;;;;;;;;;;;;;;
2021/05/11 15:37:53;;;;;;;3.83;1.67;;;;;;;32.47;20.13;99022.66;1864566;28;20395;-96
2021/05/11 15:45:03;;;;;;;;;;;;;;;;;;;;;
2021/05/11 15:48:11;;;;;;;13.95;1.50;;;;;;;32.07;20.42;99020.56;4388764;28;32024;-96
2021/05/11 15:51:21;;;;;;;5.95;1.55;;;;;;;32.21;20.97;99014.66;4258231;28;32573;-96
2021/05/11 16:12:49;;;;;;;5.03;1.57;;;;;;;32.12;21.84;98994.41;4702715;28;20112;31
2021/05/11 16:24:06;;;;;;;1.55;1.27;;;;;;;32.20;21.70;98983.09;4325279;28;35226;-96
2021/05/11 16:31:00;;;;;;;17.60;2.12;;;;;;;31.67;22.53;98982.13;4272976;27;20842;-96
2021/05/11 16:34:13;;;;;;;8.43;1.62;;;;;;;31.29;23.42;98974.81;4238569;33;33887;-96
2021/05/11 16:37:02;;;;;;;3.45;1.52;;;;;;;31.30;22.38;98979.22;4253878;33;32963;-96
2021/05/11 16:39:59;;;;;;;6.03;1.60;;;;;;;30.48;23.70;98971.41;4231547;33;34424;-96
2021/05/11 16:42:50;;;;;;;5.55;1.90;;;;;;;30.28;23.63;98973.81;4255937;33;31974;-95
2021/05/11 16:45:53;;;;;;;6.68;1.98;;;;;;;30.02;24.47;98971.19;4252337;33;33878;-96
2021/05/11 16:48:45;;;;;;;8.77;1.83;;;;;;;29.91;24.76;98973.50;4242690;33;33367;-96
2021/05/11 16:51:30;;;;;;;8.10;1.92;;;;;;;29.82;24.77;98972.75;4249821;33;33301;-96
2021/05/11 16:58:19;;;;;;;6.82;2.15;;;;;;;29.77;26.08;98960.59;4212453;28;20165;-96
2021/05/11 17:01:35;;;;;;;;;;;;;;;;;;;;;
2021/05/11 17:05:02;;;;;;;;;;;;;;;29.77;27.84;98963.38;1596898;28;21848;31
2021/05/11 17:08:12;;;;;;;7.45;2.53;;;;;;;29.68;28.27;98965.41;4661634;28;31654;31
2021/05/11 17:11:14;;;;;;;6.85;1.70;;;;;;;29.72;27.61;98962.78;4512229;28;186955;-96
2021/05/11 17:17:58;;;;;;;9.07;2.00;;;;;;;30.71;27.93;98969.91;4619944;28;20124;-96
2021/05/11 17:21:08;;;;;;;5.70;1.87;;;;;;;31.28;27.81;98956.44;4236025;33;32258;-96
2021/05/11 17:27:32;;;;;;;6.20;1.92;;;;;;;31.07;27.87;98960.09;3042359;28;34829;-95
2021/05/11 17:31:07;;;;;;;11.45;2.97;;;;;;;30.16;28.75;98948.66;1394407;28;21183;-96
2021/05/11 17:33:46;;;;;;;8.70;2.80;;;;;;;29.34;28.76;98961.59;4259577;33;33677;-95
2021/05/11 17:36:28;;;;;;;7.22;1.95;;;;;;;28.56;29.25;98968.00;4273758;28;32535;-92
2021/05/11 17:39:10;;;;;;;15.00;3.17;;;;;;;28.38;31.54;98966.34;4274369;33;34758;-96
2021/05/11 17:41:55;;;;;;;7.22;2.00;;;;;;;28.02;31.75;98957.13;4311063;28;33264;-96
2021/05/11 17:48:34;;;;;;;12.55;3.03;;;;;;;27.74;34.76;98950.97;4243377;33;32693;-95
2021/05/11 17:51:44;;;;;;;7.12;3.08;;;;;;;27.21;36.46;98949.87;4255898;33;34467;-95
2021/05/11 17:54:21;;;;;;;8.05;2.45;;;;;;;27.33;36.02;98941.00;4251657;33;34288;-95
2021/05/11 17:56:55;;;;;;;7.22;2.10;;;;;;;26.97;36.97;98941.91;4260687;33;35399;-92
2021/05/11 17:59:30;;;;;;;5.07;2.10;;;;;;;26.81;36.32;98944.22;4265618;33;34352;-96
2021/05/11 18:02:12;;;;;;;3.37;2.47;;;;;;;26.10;38.08;98941.97;4259703;33;33854;-96
2021/05/11 18:04:49;;;;;;;7.70;2.03;;;;;;;26.09;37.76;98941.13;4268311;33;34723;-94
2021/05/11 18:07:57;;;;;;;5.85;2.53;;;;;;;25.95;37.91;98946.66;4249382;33;32562;-95
2021/05/11 18:10:53;;;;;;;13.10;4.35;;;;;;;25.45;39.79;98950.13;3430512;28;32771;-96
2021/05/11 18:13:39;;;;;;;5.03;2.10;;;;;;;24.99;40.82;98946.19;4261603;33;33937;-95
2021/05/11 18:16:13;;;;;;;8.57;2.90;;;;;;;24.98;40.67;98946.50;4253982;33;34026;-95
2021/05/11 18:18:58;;;;;;;7.65;1.92;;;;;;;24.93;41.06;98943.84;4273258;33;34249;-94
2021/05/11 18:21:31;;;;;;;4.78;2.15;;;;;;;24.66;41.92;98946.19;4272487;33;34691;-94
2021/05/11 18:24:07;;;;;;;6.20;2.15;;;;;;;24.42;42.36;98946.25;4263699;33;34740;-95
2021/05/11 18:26:40;;;;;;;6.40;2.08;;;;;;;24.41;42.77;98949.31;4258354;33;35181;-91
2021/05/11 18:29:14;;;;;;;10.18;2.50;;;;;;;23.98;43.94;98958.41;4257263;33;33050;-95
2021/05/11 18:31:49;;;;;;;6.30;2.30;;;;;;;23.88;44.44;98950.31;4258510;33;33958;-90
2021/05/11 18:34:22;;;;;;;8.38;2.67;;;;;;;23.93;44.58;98952.97;4266705;33;34644;-88
2021/05/11 18:37:00;;;;;;;5.75;2.80;;;;;;;23.67;45.04;98950.50;4269070;33;33625;-88
2021/05/11 18:39:37;;;;;;;5.18;1.65;;;;;;;23.19;46.37;98954.03;4366143;28;35150;-96
2021/05/11 18:42:29;;;;;;;5.25;2.22;;;;;;;23.27;46.20;98950.63;3570585;28;35057;-89
2021/05/11 18:45:05;;;;;;;6.50;2.33;;;;;;;22.97;46.99;98956.41;4249991;33;33127;-96
2021/05/11 18:47:57;;;;;;;5.47;2.47;;;;;;;22.94;46.76;98962.50;4263862;33;33043;-96
2021/05/11 18:50:46;;;;;;;5.55;2.30;;;;;;;22.88;46.83;98962.53;4268449;28;34672;-96
2021/05/11 18:53:19;;;;;;;4.20;2.08;;;;;;;22.48;47.89;98955.38;4233716;33;35295;-96
2021/05/11 18:56:15;;;;;;;3.80;2.55;;;;;;;22.47;47.83;98949.06;4233470;33;33731;-96
2021/05/11 18:58:49;;;;;;;5.62;2.28;;;;;;;22.46;47.67;98950.16;4216270;34;35255;-95
2021/05/11 19:01:40;;;;;;;6.50;2.25;;;;;;;22.17;48.27;98953.59;4244174;33;33005;-89
2021/05/11 19:04:13;;;;;;;4.47;2.70;;;;;;;22.06;48.93;98959.44;4242935;33;33371;-89
2021/05/11 19:06:46;;;;;;;6.55;2.72;;;;;;;21.77;49.79;98952.69;4242817;33;33677;-95
2021/05/11 19:09:19;;;;;;;4.07;2.53;;;;;;;21.63;50.14;98955.22;4253778;28;34387;-90
2021/05/11 19:11:52;;;;;;;12.00;2.80;;;;;;;21.42;50.49;98956.31;4246788;33;33684;-87
2021/05/11 19:14:25;;;;;;;6.82;2.30;;;;;;;21.36;50.65;98958.25;4244995;33;35031;-96
2021/05/11 19:17:07;;;;;;;8.68;2.70;;;;;;;21.23;50.81;98948.66;4263204;33;34209;-89
2021/05/11 19:19:40;;;;;;;8.07;2.40;;;;;;;21.13;51.06;98954.97;4229266;33;33475;-96
2021/05/11 19:22:49;;;;;;;7.80;2.85;;;;;;;20.88;51.65;98955.00;4232640;33;33820;-89
2021/05/11 19:25:22;;;;;;;3.45;2.62;;;;;;;20.82;51.83;98951.41;4251917;33;33598;-95
2021/05/11 19:28:11;;;;;;;11.23;3.50;;;;;;;20.89;51.52;98953.91;4250550;33;33591;-88
2021/05/11 19:30:43;;;;;;;8.85;3.10;;;;;;;20.73;51.92;98951.13;4247581;33;32768;-89
2021/05/11 19:33:17;;;;;;;3.60;2.75;;;;;;;20.45;52.70;98949.72;4386628;28;36890;-96
2021/05/11 19:36:11;;;;;;;5.75;2.87;;;;;;;20.49;52.64;98950.00;4235646;33;33343;-96
2021/05/11 19:39:05;;;;;;;5.20;3.00;;;;;;;20.26;53.18;98952.97;4249600;33;32720;-96
2021/05/11 19:41:39;;;;;;;4.22;2.35;;;;;;;20.38;52.64;98954.63;4247013;33;34206;-96
2021/05/11 19:44:28;;;;;;;7.90;3.05;;;;;;;20.31;52.70;98951.31;4212394;34;32111;-96
2021/05/11 19:47:22;;;;;;;9.30;3.10;;;;;;;19.99;53.37;98953.16;4176400;34;32850;-96
2021/05/11 19:50:20;;;;;;;7.18;3.33;;;;;;;19.84;53.59;98948.44;4196390;33;33871;-96
2021/05/11 19:52:54;;;;;;;8.63;3.00;;;;;;;19.60;54.24;98941.72;4185680;34;34699;-96